Address 0xcfbf8c8d739e2f7d4bca8c47bbc2c7e31b983f71 8

 

Overview

Balance:
3.26260486275660026 MATIC

MATIC Value:
$2.55 (@ $0.78/MATIC)

Token:
 
Txn Hash Method
Block
From
To
Value [Txn Fee]
0xcbe418a772acdd4954f9a6f5ea05ce4c2f445f99925c4e144182fcdc24a9ba1eMint325278722022-08-31 19:39:4526 days 11 hrs ago0xcfbf8c8d739e2f7d4bca8c47bbc2c7e31b983f71OUT 0xedc8884b5a759897d847779b5667ce4c7adfb9c00 MATIC0.008821106633 108.218503213
0xf8efa187c01d0a995ad1fa22ea79de4f8d64e075413d22571cff3c36da2981d9Mint325278552022-08-31 19:39:0726 days 11 hrs ago0xcfbf8c8d739e2f7d4bca8c47bbc2c7e31b983f71OUT 0xedc8884b5a759897d847779b5667ce4c7adfb9c00 MATIC0.008658058379 106.218205655
0xa1e4435efd1ba70b0ef8b0be3eece3d9a3fc316a427fe9d886f998e77a62571eMint325278462022-08-31 19:38:4926 days 11 hrs ago0xcfbf8c8d739e2f7d4bca8c47bbc2c7e31b983f71OUT 0xedc8884b5a759897d847779b5667ce4c7adfb9c00 MATIC0.013056783854 112.838632592
0xfd211010e1d3ab76f696245df079ec38d191cc2079eb04f1ea2f41e05335ee73Mint324613342022-08-29 22:02:2628 days 9 hrs ago0xcfbf8c8d739e2f7d4bca8c47bbc2c7e31b983f71OUT 0x1d96594a73214926bef5b97f1ad4978d741862fe0.29 MATIC0.003186703175 30.555000057
0x333c45e36a06a256356e4f3f4036648c295004a5ae4f2e84d3cd5d64f4b7c19aMint324613312022-08-29 22:02:0828 days 9 hrs ago0xcfbf8c8d739e2f7d4bca8c47bbc2c7e31b983f71OUT 0x1d96594a73214926bef5b97f1ad4978d741862fe0.29 MATIC0.003186703174 30.555000045
0xa6adaba140a423e0058207607fd43dc031ff826511c43528f568c114d5dce6daMint324613282022-08-29 22:01:5028 days 9 hrs ago0xcfbf8c8d739e2f7d4bca8c47bbc2c7e31b983f71OUT 0x1d96594a73214926bef5b97f1ad4978d741862fe0.29 MATIC0.003186703174 30.55500004
0x78063c866f322a7aa7ce27221281559f5efd3d0c79248995d33f1b9b7cffa86aMint324613262022-08-29 22:01:3828 days 9 hrs ago0xcfbf8c8d739e2f7d4bca8c47bbc2c7e31b983f71OUT 0x1d96594a73214926bef5b97f1ad4978d741862fe0.29 MATIC0.003186703173 30.555000032
0x927fc684572e652b1864b2e81df8dd504028bb680cd5bf3009e1ea92be751997Mint324613232022-08-29 22:01:2028 days 9 hrs ago0xcfbf8c8d739e2f7d4bca8c47bbc2c7e31b983f71OUT 0x1d96594a73214926bef5b97f1ad4978d741862fe0.29 MATIC0.004213129949 30.421028704
0x2449f66e3558b94d40959fc4f3520898908117f2fec266858f024041516e93e9Mint324610712022-08-29 21:50:1328 days 9 hrs ago0xcfbf8c8d739e2f7d4bca8c47bbc2c7e31b983f71OUT 0xa7678f1b1bc29e24bd907ba7a41fa0bb5d0bc3c30 MATIC0.002870841135 34.965910743
0x760b2878b6ac5711854084976c3b4ceb58f6701120e175983a21d215b916fa8eMint324609672022-08-29 21:46:0528 days 9 hrs ago0xcfbf8c8d739e2f7d4bca8c47bbc2c7e31b983f71OUT 0xa7678f1b1bc29e24bd907ba7a41fa0bb5d0bc3c30 MATIC0.002472825432 30.118209015
0x8ebd15c28c10c4d9e9a5fe95aeeae1d58e77785747a15fdfac3c1521b377052eMint324609582022-08-29 21:45:4728 days 9 hrs ago0xcfbf8c8d739e2f7d4bca8c47bbc2c7e31b983f71OUT 0xa7678f1b1bc29e24bd907ba7a41fa0bb5d0bc3c30 MATIC0.002493387406 30.368647166
0x9645bcbe8e1b0e886bf6b11dad08d89ba4a29fbbd324f39ef93c28608f6b2ca5Mint324607212022-08-29 21:37:0728 days 9 hrs ago0xcfbf8c8d739e2f7d4bca8c47bbc2c7e31b983f71OUT 0xa7678f1b1bc29e24bd907ba7a41fa0bb5d0bc3c30 MATIC0.002622696876 31.943594428
0x06f3b52b0999f732b41d8e9fb847abeedd95269703a3a998c779e5fbb614efbaMint324607172022-08-29 21:36:5128 days 9 hrs ago0xcfbf8c8d739e2f7d4bca8c47bbc2c7e31b983f71OUT 0xa7678f1b1bc29e24bd907ba7a41fa0bb5d0bc3c30 MATIC0.003116090028 37.952962438
0xefa53cea616527c55bec40de7898cbee666191c86d7b2a2d6d33947fb4dad981Mint324607032022-08-29 21:35:5528 days 9 hrs ago0xcfbf8c8d739e2f7d4bca8c47bbc2c7e31b983f71OUT 0xa7678f1b1bc29e24bd907ba7a41fa0bb5d0bc3c30 MATIC0.002622695175 31.943573702
0x6082c6b60de268b797e3123a4d308ed26cf4c49af6f640187f5f6ef839289db2Mint324607012022-08-29 21:35:4728 days 9 hrs ago0xcfbf8c8d739e2f7d4bca8c47bbc2c7e31b983f71OUT 0xa7678f1b1bc29e24bd907ba7a41fa0bb5d0bc3c30 MATIC0.002015766329 31.943558721
0x3aca455cdb33408dd0fee5178cddd13c1d004f4cd6c9587357c4556fc6140d89Mint324606932022-08-29 21:35:1528 days 9 hrs ago0xcfbf8c8d739e2f7d4bca8c47bbc2c7e31b983f71OUT 0xa7678f1b1bc29e24bd907ba7a41fa0bb5d0bc3c30 MATIC0.002622694075 31.943560308
0xe112b320d4c7353120aeab52e57e995310030a65a1405b815b95bc4af1f637b4Mint324606832022-08-29 21:34:3128 days 9 hrs ago0xcfbf8c8d739e2f7d4bca8c47bbc2c7e31b983f71OUT 0xa7678f1b1bc29e24bd907ba7a41fa0bb5d0bc3c30 MATIC0.003188741336 38.837831737
0x980e791f32e54c4ca3bae42346fcbfc51698e6ace8fa0875db87a103d0620c1dMint324606762022-08-29 21:34:0328 days 9 hrs ago0xcfbf8c8d739e2f7d4bca8c47bbc2c7e31b983f71OUT 0xa7678f1b1bc29e24bd907ba7a41fa0bb5d0bc3c30 MATIC0.005453464499 46.889741534
0x33064b4f1b8c7638e4a034066cdf634e76b39724b8de0f389ca49c15b5a43841Mint324033262022-08-28 6:03:1130 days 1 hr ago0xcfbf8c8d739e2f7d4bca8c47bbc2c7e31b983f71OUT 0xc29e9bb0b580074411fb6321cc97578289cf7d9f0 MATIC0.030920190011 30.000000011
0x6ddd7b77a0020ab635ffa141b0f3afbaf1702b3c33a59a6662760cba74816767Add Whitelisted ...323832522022-08-27 16:50:3030 days 14 hrs ago0xcfbf8c8d739e2f7d4bca8c47bbc2c7e31b983f71OUT 0xc29e9bb0b580074411fb6321cc97578289cf7d9f0 MATIC0.043880520749 48.500000276
0x5ab0ae5e8bb763e8973e8bfc39e6fac1527d5d52ddd81cdb0aa82c1b226d5309Set Approval For...322797372022-08-24 20:44:4633 days 10 hrs ago0xcfbf8c8d739e2f7d4bca8c47bbc2c7e31b983f71OUT 0x8d36a3025cba9fa5cd53eb4a9560359a8b92d8620 MATIC0.001439852507 31.040000599
0x26ef97304bcfde923cd2d1c4818dc229b0a8798babb759e51c10726bc7138586Set Approval For...322796782022-08-24 20:40:4833 days 10 hrs ago0xcfbf8c8d739e2f7d4bca8c47bbc2c7e31b983f71OUT 0x85faeb69ea760af579b4be22e0ec585205bc15c30 MATIC0.001391610011 30.00000025
0x45d2ee0cdc555e5903037ab5ea851d28f8f5edad348cf49d17cacf0f8f8e8627Set Approval For...322796352022-08-24 20:39:2233 days 10 hrs ago0xcfbf8c8d739e2f7d4bca8c47bbc2c7e31b983f71OUT 0x03b59d624260f1c8b72c6ec895c19228507145520 MATIC0.001392270046 30.00000101
0x1a383b685406a9297409c33de295c3a666a12492ceb5332166feb50a0194f24fSet Approval For...322795902022-08-24 20:37:4733 days 10 hrs ago0xcfbf8c8d739e2f7d4bca8c47bbc2c7e31b983f71OUT 0xdaaa20d211fe06655aa5356db91aae0e6abad6b30 MATIC0.001391610265 30.000005713
0x370d61842f18996fc037afed2154b68727d26a48d473eaf7daf305e4228f4d55Set Approval For...322795082022-08-24 20:34:5933 days 10 hrs ago0xcfbf8c8d739e2f7d4bca8c47bbc2c7e31b983f71OUT 0xa45f81e884d77270979491f06a6f18fddbbeb2140 MATIC0.001395580038 30.000215786
[ Download CSV Export 
Latest 7 internal transactions
Parent Txn Hash Block From To Value
0x18a45110d007516aff57d7969c9df0b3086d40cc1aa20299226716b761b46da1317026742022-08-09 17:10:0648 days 14 hrs ago QuickSwap: Router0xcfbf8c8d739e2f7d4bca8c47bbc2c7e31b983f715.67794212423920226 MATIC
0xa15cf245925f9480f0b8935a30ed43905e15e3825e4f3f9fd3ddf5e5337f2d49276559012022-04-27 23:53:49152 days 7 hrs ago QuickSwap: Router0xcfbf8c8d739e2f7d4bca8c47bbc2c7e31b983f713.438889685335270846 MATIC
0xa736a1386f5a2ac45d9347fdaaff956164ff5104e74290549fa831347ae63daf240991462022-01-24 8:54:12245 days 22 hrs ago QuickSwap: Router0xcfbf8c8d739e2f7d4bca8c47bbc2c7e31b983f713.276104820198880599 MATIC
0x4d996ebcc857ca15d89cbe0f7f44e0344800ed868131bdd708a254bc481e6e85221582232021-12-05 8:25:47295 days 23 hrs ago SushiSwap: Router0xcfbf8c8d739e2f7d4bca8c47bbc2c7e31b983f71375.95770915570226141 MATIC
0x1a25ef02612470819b51bb26ceb382148312ae463a81bdc0b9481ca5c8d6a112219493592021-11-29 21:13:00301 days 10 hrs ago Polyroll: MATIC Token Game0xcfbf8c8d739e2f7d4bca8c47bbc2c7e31b983f713.96 MATIC
0x796a991db11f8d09fe5c2f223c9b4f9af50ca6d916ae4831878b6e975851c3b6215802212021-11-20 4:05:51311 days 3 hrs ago QuickSwap: Router0xcfbf8c8d739e2f7d4bca8c47bbc2c7e31b983f71174.709859034533876435 MATIC
0x56b6818535a3e95fa6548189a8968bdc0f0e4a9ab0e0b6d0a727bed7275ed9b2213011172021-11-12 23:41:33318 days 7 hrs ago QuickSwap: Router0xcfbf8c8d739e2f7d4bca8c47bbc2c7e31b983f7148.961611932345398185 MATIC
[ Download CSV Export 
Loading

Contract Name:
0 MATIC

Compiler Version
0

Optimization Enabled:
0 MATIC

Other Settings:
-NA-
Block Transaction Gas Used Reward
Age Block Fee Address BC Fee Address Voting Power Jailed Incoming
Block Uncle Number Difficulty Gas Used Reward
Loading
Loading
Make sure to use the "Vote Down" button for any spammy posts, and the "Vote Up" for interesting conversations.